EST,Max TemperatureF,Mean TemperatureF,Min TemperatureF,Max Dew PointF,MeanDew PointF,Min DewpointF,Max Humidity, Mean Humidity, Min Humidity, Max Sea Level PressureIn, Mean Sea Level PressureIn, Min Sea Level PressureIn, Max VisibilityMiles, Mean VisibilityMiles, Min VisibilityMiles, Max Wind SpeedMPH, Mean Wind SpeedMPH, Max Gust SpeedMPH,PrecipitationIn, CloudCover, Events, WindDirDegrees
2013-2-1,17,12,7,9,6,0,81,70,57,30.24,29.92,29.64,10,4,0,22,12,38,0.00,8,Snow,272
2013-2-2,17,12,6,13,6,0,84,77,70,30.23,29.99,29.84,10,3,0,14,6,22,0.04,8,Snow,207
2013-2-3,21,16,12,14,11,7,84,77,65,29.94,29.77,29.66,9,2,0,14,4,21,0.01,8,Snow,251
2013-2-4,19,16,12,14,10,5,84,75,65,29.98,29.85,29.78,6,2,1,10,6,20,0.00,8,Snow,257
2013-2-5,26,19,12,18,15,10,88,78,69,29.90,29.81,29.72,10,5,1,8,2,,0.01,7,Snow,251
2013-2-6,25,18,7,20,15,2,92,76,51,30.35,30.06,29.82,10,5,1,17,8,26,0.00,6,Rain-Snow,287
2013-2-7,33,17,1,19,11,-3,84,68,52,30.35,30.25,30.06,10,8,2,17,5,26,0.00,5,,137
2013-2-8,34,24,15,30,21,8,89,80,66,30.04,29.84,29.69,10,4,0,24,13,31,0.11,8,Fog-Snow,240
2013-2-9,23,15,3,12,8,-1,88,75,60,30.40,30.22,30.00,10,5,1,18,13,28,0.00,6,Snow,317
2013-2-10,39,18,-2,17,8,-10,81,57,35,30.41,30.26,30.01,10,9,3,14,5,22,0.00,3,,137
2013-2-11,50,40,30,39,30,17,93,75,48,29.97,29.75,29.59,10,7,2,21,12,40,0.02,8,Rain-Snow,213
2013-2-12,30,27,21,22,20,16,81,72,69,29.99,29.91,29.78,10,6,1,22,11,32,0.00,7,Snow,273
2013-2-13,39,29,19,22,20,16,85,69,46,29.92,29.78,29.67,10,9,7,9,2,,0.00,4,,274
2013-2-14,35,29,23,30,25,18,85,81,72,29.93,29.83,29.75,8,4,1,12,7,20,0.05,8,Snow,210
2013-2-15,35,29,21,31,22,15,85,73,59,30.02,29.92,29.79,10,7,0,13,9,21,0.00,8,Snow,274
2013-2-16,24,16,7,14,8,1,81,67,46,30.03,29.95,29.85,10,8,1,14,4,,0.00,6,Snow,315
2013-2-17,16,11,6,9,5,0,84,71,54,30.17,29.91,29.78,10,3,1,24,10,37,0.00,8,Snow,305
2013-2-18,34,21,9,17,7,4,80,57,35,30.27,30.14,29.95,10,9,5,12,8,17,0.00,3,Snow,218
2013-2-19,37,28,18,33,22,11,89,75,48,29.92,29.69,29.54,10,4,0,17,10,29,0.21,7,Fog-Rain-Snow,229
2013-2-20,18,16,14,10,7,3,77,68,53,30.10,29.89,29.74,9,3,0,26,13,34,0.00,8,Snow,276
2013-2-21,21,18,14,11,9,8,84,73,60,30.36,30.12,29.97,10,5,1,21,13,30,0.00,7,Snow,302
2013-2-22,28,22,16,23,18,12,88,79,63,30.35,30.13,29.98,10,7,2,21,12,30,0.01,7,Snow,137
2013-2-23,34,30,27,30,27,23,89,85,75,30.03,29.89,29.79,9,4,1,15,8,21,0.00,8,,181
2013-2-24,30,27,24,25,18,15,85,73,63,30.09,29.91,29.78,10,5,1,17,9,26,0.00,8,Snow,292
2013-2-25,33,28,24,20,18,15,81,71,52,30.21,30.14,30.02,10,9,7,8,5,,0.00,5,,310
2013-2-26,35,26,18,22,19,13,82,70,59,30.17,30.07,29.94,10,10,8,26,9,38,0.00,1,,130
2013-2-27,35,34,33,33,31,28,92,89,81,29.62,29.57,29.53,10,4,0,13,5,21,0.13,8,Fog-Snow,237
2013-2-28,32,31,30,29,26,25,88,83,79,29.72,29.56,29.51,10,3,1,14,6,20,0.12,8,Snow,265